AFR754 LFPG-FCBB
Flight info
| Callsign | AFR754 |
|---|---|
| Flight time | N/A |
| Altitude | 33000 |
| Route | OKASI DCT SIQLE DCT UTUVA DCT LIQID DCT SALIN M731 DIVKO DCT SOSUR/N0496F350 UM989 OLNUL DCT KAMER UM998 ENBUT/N0505F370 UM998 MIU UG727 TIVAL NAMOT2V |
| Aircraft | B77W/H-SDE1E2E3FGHIJ2J3J4J5M1RWXY/LB1D1 |
Departure
| Time | N/A |
|---|---|
| Airport | Charles de Gaulle International Airport (LFPG) |
Arrival
| Time | 2026-04-16 22:13 |
|---|---|
| Airport | Maya-Maya International Airport (FCBB) |
| Time | Latitude | Longitude | Altitude | Speed | Heading |
|---|---|---|---|---|---|
| 2026-04-16 15:31 | 48.41295 | 2.50682 | 21469 ft | 462 kts | 151° |
| 2026-04-16 15:31 | 48.38529 | 2.53188 | 22060 ft | 467 kts | 151° |
| 2026-04-16 15:32 | 48.35733 | 2.55718 | 22639 ft | 471 kts | 150° |
| 2026-04-16 15:32 | 48.32905 | 2.58275 | 23204 ft | 476 kts | 150° |
| 2026-04-16 15:32 | 48.30077 | 2.60827 | 23789 ft | 479 kts | 151° |
| 2026-04-16 15:32 | 48.27204 | 2.63410 | 24361 ft | 482 kts | 152° |
| 2026-04-16 15:33 | 48.24263 | 2.65741 | 24874 ft | 485 kts | 156° |
| 2026-04-16 15:33 | 48.21217 | 2.68040 | 25360 ft | 490 kts | 156° |
| 2026-04-16 15:33 | 48.18197 | 2.70321 | 25846 ft | 494 kts | 156° |
| 2026-04-16 15:33 | 48.15113 | 2.72658 | 26354 ft | 497 kts | 156° |
| 2026-04-16 15:34 | 48.12021 | 2.75004 | 26838 ft | 501 kts | 156° |
| 2026-04-16 15:34 | 48.08879 | 2.77292 | 27294 ft | 503 kts | 160° |
| 2026-04-16 15:34 | 48.05608 | 2.78997 | 27741 ft | 504 kts | 166° |
| 2026-04-16 15:34 | 48.02216 | 2.80503 | 28236 ft | 507 kts | 166° |
| 2026-04-16 15:35 | 47.98864 | 2.81971 | 28726 ft | 509 kts | 166° |
| 2026-04-16 15:35 | 47.95457 | 2.83461 | 29189 ft | 512 kts | 166° |
| 2026-04-16 15:35 | 47.92009 | 2.84970 | 29673 ft | 514 kts | 166° |
| 2026-04-16 15:35 | 47.88623 | 2.86451 | 30258 ft | 514 kts | 166° |
| 2026-04-16 15:36 | 47.85183 | 2.87954 | 30903 ft | 512 kts | 166° |
| 2026-04-16 15:36 | 47.81742 | 2.89458 | 31546 ft | 510 kts | 167° |
| 2026-04-16 15:36 | 47.78342 | 2.90941 | 32120 ft | 509 kts | 167° |
| 2026-04-16 15:36 | 47.74925 | 2.92430 | 32597 ft | 509 kts | 167° |
| 2026-04-16 15:37 | 47.71514 | 2.93914 | 33069 ft | 508 kts | 167° |
| 2026-04-16 15:37 | 47.68041 | 2.95423 | 33219 ft | 511 kts | 167° |
| 2026-04-16 15:37 | 47.64632 | 2.96903 | 33222 ft | 509 kts | 167° |
| 2026-04-16 15:38 | 47.57840 | 2.99847 | 33219 ft | 509 kts | 167° |
| 2026-04-16 15:38 | 47.51076 | 3.02770 | 33215 ft | 509 kts | 167° |
| 2026-04-16 15:39 | 47.44288 | 3.05696 | 33213 ft | 509 kts | 167° |
| 2026-04-16 15:39 | 47.37491 | 3.08617 | 33204 ft | 509 kts | 167° |
| 2026-04-16 15:40 | 47.30707 | 3.11525 | 33209 ft | 509 kts | 167° |
| 2026-04-16 15:40 | 47.23916 | 3.14428 | 33204 ft | 508 kts | 166° |
| 2026-04-16 15:41 | 47.17074 | 3.17346 | 33211 ft | 509 kts | 166° |
| 2026-04-16 15:41 | 47.10263 | 3.20242 | 33212 ft | 510 kts | 166° |
| 2026-04-16 15:42 | 47.03464 | 3.23120 | 33216 ft | 510 kts | 168° |
| 2026-04-16 15:42 | 46.96532 | 3.24965 | 33218 ft | 507 kts | 174° |
| 2026-04-16 15:43 | 46.89517 | 3.26526 | 33216 ft | 507 kts | 174° |
| 2026-04-16 15:43 | 46.82649 | 3.28052 | 33207 ft | 507 kts | 174° |
| 2026-04-16 15:44 | 46.75687 | 3.29598 | 33206 ft | 507 kts | 174° |
| 2026-04-16 15:44 | 46.68710 | 3.31143 | 33209 ft | 509 kts | 174° |
| 2026-04-16 15:45 | 46.61701 | 3.32692 | 33204 ft | 508 kts | 174° |
| 2026-04-16 15:45 | 46.54769 | 3.34220 | 33204 ft | 508 kts | 174° |
| 2026-04-16 15:46 | 46.47760 | 3.35762 | 33206 ft | 508 kts | 174° |
| 2026-04-16 15:46 | 46.40797 | 3.37289 | 33203 ft | 507 kts | 174° |
| 2026-04-16 15:47 | 46.33785 | 3.38823 | 33207 ft | 509 kts | 174° |
| 2026-04-16 15:47 | 46.26779 | 3.40353 | 33206 ft | 508 kts | 173° |
| 2026-04-16 15:48 | 46.19831 | 3.41865 | 33218 ft | 509 kts | 173° |
| 2026-04-16 15:48 | 46.12834 | 3.43385 | 33219 ft | 508 kts | 173° |
| 2026-04-16 15:49 | 46.05794 | 3.44909 | 33211 ft | 509 kts | 173° |
| 2026-04-16 15:49 | 45.98833 | 3.46412 | 33214 ft | 509 kts | 173° |
| 2026-04-16 15:50 | 45.91801 | 3.47928 | 33209 ft | 509 kts | 173° |
| 2026-04-16 15:50 | 45.84901 | 3.50296 | 33201 ft | 512 kts | 159° |
| 2026-04-16 15:51 | 45.78458 | 3.54716 | 33208 ft | 515 kts | 154° |
| 2026-04-16 15:51 | 45.72063 | 3.59310 | 33210 ft | 515 kts | 154° |
| 2026-04-16 15:52 | 45.65664 | 3.63889 | 33209 ft | 514 kts | 154° |
| 2026-04-16 15:52 | 45.59407 | 3.68350 | 33206 ft | 515 kts | 155° |
| 2026-04-16 15:53 | 45.53018 | 3.72891 | 33207 ft | 514 kts | 155° |
| 2026-04-16 15:53 | 45.46611 | 3.77434 | 33208 ft | 515 kts | 155° |
| 2026-04-16 15:54 | 45.40251 | 3.81931 | 33209 ft | 514 kts | 154° |
| 2026-04-16 15:54 | 45.33818 | 3.86467 | 33209 ft | 515 kts | 154° |
| 2026-04-16 15:55 | 45.27417 | 3.90969 | 33215 ft | 515 kts | 154° |
| 2026-04-16 15:55 | 45.21019 | 3.95457 | 33215 ft | 515 kts | 154° |
| 2026-04-16 15:56 | 45.14585 | 3.99825 | 33213 ft | 514 kts | 160° |
| 2026-04-16 15:56 | 45.07757 | 4.02812 | 33213 ft | 513 kts | 165° |
| 2026-04-16 15:57 | 45.00927 | 4.05567 | 33215 ft | 513 kts | 165° |
| 2026-04-16 15:57 | 44.94062 | 4.08328 | 33211 ft | 513 kts | 165° |
| 2026-04-16 15:58 | 44.88306 | 4.10637 | 33196 ft | 514 kts | 165° |
| 2026-04-16 15:59 | 44.77405 | 4.14999 | 33189 ft | 514 kts | 165° |
| 2026-04-16 15:59 | 44.70526 | 4.17743 | 33184 ft | 514 kts | 165° |
| 2026-04-16 16:00 | 44.63660 | 4.20475 | 33185 ft | 513 kts | 165° |
| 2026-04-16 16:00 | 44.56770 | 4.23209 | 33175 ft | 514 kts | 165° |
| 2026-04-16 16:01 | 44.49884 | 4.25936 | 33158 ft | 515 kts | 165° |
| 2026-04-16 16:01 | 44.43012 | 4.28650 | 33153 ft | 514 kts | 165° |
| 2026-04-16 16:02 | 44.36090 | 4.31377 | 33134 ft | 516 kts | 165° |
| 2026-04-16 16:02 | 44.29229 | 4.34074 | 33131 ft | 515 kts | 164° |
| 2026-04-16 16:03 | 44.22330 | 4.36779 | 33119 ft | 515 kts | 164° |
| 2026-04-16 16:03 | 44.15470 | 4.39462 | 33123 ft | 515 kts | 164° |
| 2026-04-16 16:04 | 44.08563 | 4.42157 | 33115 ft | 515 kts | 164° |
| 2026-04-16 16:04 | 44.01698 | 4.44829 | 33109 ft | 516 kts | 164° |
| 2026-04-16 16:05 | 43.94809 | 4.47504 | 33101 ft | 515 kts | 164° |
| 2026-04-16 16:05 | 43.87956 | 4.50159 | 33095 ft | 516 kts | 164° |
| 2026-04-16 16:06 | 43.81145 | 4.52790 | 33097 ft | 516 kts | 164° |
| 2026-04-16 16:06 | 43.74223 | 4.55459 | 33095 ft | 516 kts | 164° |
| 2026-04-16 16:07 | 43.67297 | 4.58120 | 33095 ft | 517 kts | 164° |
| 2026-04-16 16:07 | 43.60369 | 4.60779 | 33090 ft | 517 kts | 163° |
| 2026-04-16 16:08 | 43.53442 | 4.63431 | 33090 ft | 517 kts | 164° |
| 2026-04-16 16:08 | 43.46541 | 4.66067 | 33090 ft | 517 kts | 165° |
| 2026-04-16 16:09 | 43.39587 | 4.68716 | 33091 ft | 517 kts | 164° |
| 2026-04-16 16:09 | 43.32677 | 4.71343 | 33091 ft | 518 kts | 164° |
| 2026-04-16 16:10 | 43.25666 | 4.73553 | 33101 ft | 517 kts | 171° |
| 2026-04-16 16:10 | 43.18560 | 4.75031 | 33095 ft | 518 kts | 171° |
| 2026-04-16 16:11 | 43.11441 | 4.76495 | 33095 ft | 518 kts | 171° |
| 2026-04-16 16:11 | 43.04351 | 4.78291 | 33095 ft | 517 kts | 163° |
| 2026-04-16 16:12 | 42.97503 | 4.81300 | 33104 ft | 518 kts | 161° |
| 2026-04-16 16:12 | 42.90653 | 4.84369 | 33105 ft | 518 kts | 161° |
| 2026-04-16 16:13 | 42.83816 | 4.87419 | 33098 ft | 518 kts | 161° |
| 2026-04-16 16:13 | 42.77007 | 4.90449 | 33100 ft | 519 kts | 161° |
| 2026-04-16 16:14 | 42.70152 | 4.93490 | 33100 ft | 519 kts | 160° |
| 2026-04-16 16:14 | 42.63291 | 4.96526 | 33100 ft | 518 kts | 160° |
| 2026-04-16 16:15 | 42.56439 | 4.99551 | 33102 ft | 520 kts | 160° |
| 2026-04-16 16:15 | 42.49561 | 5.02582 | 33108 ft | 519 kts | 160° |
| 2026-04-16 16:16 | 42.42720 | 5.05591 | 33108 ft | 519 kts | 160° |
| 2026-04-16 16:16 | 42.35868 | 5.08595 | 33108 ft | 518 kts | 160° |
| 2026-04-16 16:17 | 42.29040 | 5.11580 | 33110 ft | 519 kts | 160° |
| 2026-04-16 16:17 | 42.22166 | 5.14580 | 33110 ft | 519 kts | 160° |
| 2026-04-16 16:18 | 42.15310 | 5.17564 | 33114 ft | 520 kts | 160° |
| 2026-04-16 16:18 | 42.08439 | 5.20548 | 33115 ft | 519 kts | 160° |
| 2026-04-16 16:19 | 42.01537 | 5.23538 | 33117 ft | 520 kts | 160° |
| 2026-04-16 16:19 | 41.94698 | 5.26495 | 33120 ft | 519 kts | 160° |
| 2026-04-16 16:20 | 41.87898 | 5.29428 | 33109 ft | 520 kts | 160° |
| 2026-04-16 16:20 | 41.81051 | 5.32375 | 33109 ft | 520 kts | 160° |
| 2026-04-16 16:21 | 41.74149 | 5.35339 | 33112 ft | 519 kts | 160° |
| 2026-04-16 16:21 | 41.67264 | 5.38261 | 33104 ft | 520 kts | 163° |
| 2026-04-16 16:22 | 41.60239 | 5.40312 | 33118 ft | 522 kts | 167° |
| 2026-04-16 16:22 | 41.53118 | 5.42252 | 33118 ft | 522 kts | 167° |
| 2026-04-16 16:23 | 41.46004 | 5.44189 | 33116 ft | 522 kts | 167° |
| 2026-04-16 16:23 | 41.38887 | 5.46126 | 33120 ft | 520 kts | 167° |
| 2026-04-16 16:24 | 41.31839 | 5.48040 | 33121 ft | 521 kts | 166° |
| 2026-04-16 16:24 | 41.24722 | 5.49970 | 33124 ft | 520 kts | 167° |
| 2026-04-16 16:25 | 41.17653 | 5.51883 | 33127 ft | 521 kts | 167° |
| 2026-04-16 16:25 | 41.10549 | 5.53801 | 33128 ft | 520 kts | 167° |
| 2026-04-16 16:26 | 41.03458 | 5.55713 | 33133 ft | 521 kts | 167° |
| 2026-04-16 16:26 | 40.96406 | 5.57608 | 33127 ft | 518 kts | 167° |
| 2026-04-16 16:27 | 40.89391 | 5.59491 | 33131 ft | 519 kts | 167° |
| 2026-04-16 16:27 | 40.82251 | 5.61402 | 33124 ft | 519 kts | 167° |
| 2026-04-16 16:28 | 40.75188 | 5.63289 | 33127 ft | 519 kts | 167° |
| 2026-04-16 16:28 | 40.68148 | 5.65166 | 33127 ft | 518 kts | 168° |
| 2026-04-16 16:29 | 40.61062 | 5.67051 | 33132 ft | 517 kts | 168° |
| 2026-04-16 16:29 | 40.54024 | 5.68919 | 33131 ft | 517 kts | 168° |
| 2026-04-16 16:30 | 40.47002 | 5.70779 | 33133 ft | 516 kts | 168° |
| 2026-04-16 16:30 | 40.39977 | 5.72635 | 33136 ft | 517 kts | 168° |
| 2026-04-16 16:31 | 40.32918 | 5.74497 | 33141 ft | 517 kts | 168° |
| 2026-04-16 16:31 | 40.25872 | 5.76351 | 33138 ft | 515 kts | 168° |
| 2026-04-16 16:32 | 40.18885 | 5.78186 | 33141 ft | 516 kts | 168° |
| 2026-04-16 16:32 | 40.11845 | 5.80031 | 33142 ft | 515 kts | 168° |
| 2026-04-16 16:33 | 40.04828 | 5.81866 | 33140 ft | 514 kts | 168° |
| 2026-04-16 16:33 | 39.97833 | 5.83692 | 33142 ft | 514 kts | 168° |
| 2026-04-16 16:34 | 39.90817 | 5.85518 | 33148 ft | 514 kts | 168° |
| 2026-04-16 16:34 | 39.83821 | 5.87336 | 33141 ft | 513 kts | 168° |
| 2026-04-16 16:35 | 39.76837 | 5.89148 | 33141 ft | 514 kts | 168° |
| 2026-04-16 16:35 | 39.69862 | 5.90953 | 33141 ft | 513 kts | 168° |
| 2026-04-16 16:36 | 39.62868 | 5.92759 | 33146 ft | 513 kts | 168° |
| 2026-04-16 16:36 | 39.55856 | 5.94566 | 33145 ft | 511 kts | 168° |
| 2026-04-16 16:37 | 39.48873 | 5.96362 | 33148 ft | 512 kts | 168° |
| 2026-04-16 16:37 | 39.41939 | 5.98142 | 33149 ft | 512 kts | 168° |
| 2026-04-16 16:38 | 39.34922 | 5.99939 | 33149 ft | 512 kts | 168° |
| 2026-04-16 16:38 | 39.27953 | 6.01721 | 33153 ft | 512 kts | 168° |
| 2026-04-16 16:39 | 39.20972 | 6.03502 | 33150 ft | 511 kts | 168° |
| 2026-04-16 16:39 | 39.14030 | 6.05269 | 33152 ft | 510 kts | 168° |
| 2026-04-16 16:40 | 39.07051 | 6.07043 | 33157 ft | 510 kts | 168° |
| 2026-04-16 16:40 | 39.00120 | 6.08800 | 33156 ft | 511 kts | 168° |
| 2026-04-16 16:41 | 38.93085 | 6.10280 | 33158 ft | 512 kts | 171° |
| 2026-04-16 16:41 | 38.86055 | 6.11646 | 33152 ft | 511 kts | 171° |
| 2026-04-16 16:42 | 38.79046 | 6.13018 | 33150 ft | 512 kts | 171° |
| 2026-04-16 16:42 | 38.72014 | 6.14400 | 33153 ft | 511 kts | 171° |
| 2026-04-16 16:43 | 38.65011 | 6.15779 | 33153 ft | 512 kts | 171° |
| 2026-04-16 16:43 | 38.57983 | 6.17162 | 33150 ft | 512 kts | 171° |
| 2026-04-16 16:44 | 38.50921 | 6.18551 | 33151 ft | 513 kts | 171° |
| 2026-04-16 16:44 | 38.43880 | 6.19933 | 33156 ft | 513 kts | 171° |
| 2026-04-16 16:45 | 38.36806 | 6.21320 | 33153 ft | 513 kts | 171° |
| 2026-04-16 16:45 | 38.29767 | 6.22697 | 33154 ft | 514 kts | 171° |
| 2026-04-16 16:46 | 38.22723 | 6.24072 | 33157 ft | 513 kts | 171° |
| 2026-04-16 16:46 | 38.15663 | 6.25448 | 33161 ft | 514 kts | 171° |
| 2026-04-16 16:47 | 38.08578 | 6.26826 | 33160 ft | 514 kts | 171° |
| 2026-04-16 16:47 | 38.01519 | 6.28197 | 33161 ft | 515 kts | 171° |
| 2026-04-16 16:48 | 37.94475 | 6.29562 | 33165 ft | 515 kts | 171° |
| 2026-04-16 16:48 | 37.87348 | 6.30940 | 33157 ft | 514 kts | 171° |
| 2026-04-16 16:49 | 37.80245 | 6.32311 | 33158 ft | 516 kts | 171° |
| 2026-04-16 16:49 | 37.73184 | 6.33671 | 33159 ft | 516 kts | 171° |
| 2026-04-16 16:50 | 37.66101 | 6.35033 | 33159 ft | 514 kts | 171° |
| 2026-04-16 16:50 | 37.59047 | 6.36387 | 33162 ft | 515 kts | 171° |
| 2026-04-16 16:51 | 37.51946 | 6.37747 | 33159 ft | 514 kts | 171° |
| 2026-04-16 16:51 | 37.44881 | 6.39097 | 33165 ft | 515 kts | 171° |
| 2026-04-16 16:52 | 37.37819 | 6.40445 | 33165 ft | 515 kts | 171° |
| 2026-04-16 16:52 | 37.30717 | 6.41797 | 33166 ft | 515 kts | 171° |
| 2026-04-16 16:53 | 37.23643 | 6.43142 | 33165 ft | 515 kts | 171° |
| 2026-04-16 16:53 | 37.16550 | 6.44487 | 33167 ft | 515 kts | 171° |
| 2026-04-16 16:54 | 37.09464 | 6.45829 | 33170 ft | 514 kts | 171° |
| 2026-04-16 16:54 | 37.02369 | 6.47170 | 33169 ft | 517 kts | 171° |
| 2026-04-16 16:55 | 36.95311 | 6.48501 | 33172 ft | 516 kts | 171° |
| 2026-04-16 16:55 | 36.88177 | 6.49845 | 33169 ft | 516 kts | 171° |
| 2026-04-16 16:56 | 36.81083 | 6.51178 | 33160 ft | 515 kts | 171° |
| 2026-04-16 16:56 | 36.74010 | 6.52504 | 33165 ft | 516 kts | 171° |
| 2026-04-16 16:57 | 36.63366 | 6.54496 | 33164 ft | 516 kts | 171° |
| 2026-04-16 16:58 | 36.56265 | 6.55822 | 33165 ft | 516 kts | 171° |
| 2026-04-16 16:58 | 36.49157 | 6.57147 | 33204 ft | 520 kts | 171° |
| 2026-04-16 16:58 | 36.45580 | 6.57812 | 33518 ft | 520 kts | 171° |
| 2026-04-16 16:59 | 36.41978 | 6.58481 | 34095 ft | 515 kts | 171° |
| 2026-04-16 16:59 | 36.38457 | 6.59135 | 34577 ft | 510 kts | 171° |
| 2026-04-16 16:59 | 36.34969 | 6.59783 | 34866 ft | 509 kts | 171° |
| 2026-04-16 16:59 | 36.31464 | 6.60433 | 35048 ft | 510 kts | 171° |
| 2026-04-16 17:00 | 36.27925 | 6.60861 | 35154 ft | 512 kts | 178° |
| 2026-04-16 17:00 | 36.20813 | 6.61100 | 35185 ft | 512 kts | 179° |
| 2026-04-16 17:01 | 36.13695 | 6.61306 | 35190 ft | 512 kts | 179° |
| 2026-04-16 17:01 | 36.06639 | 6.61512 | 35179 ft | 511 kts | 179° |
| 2026-04-16 17:02 | 35.99559 | 6.61721 | 35169 ft | 509 kts | 179° |
| 2026-04-16 17:02 | 35.92446 | 6.61931 | 35174 ft | 512 kts | 179° |
| 2026-04-16 17:03 | 35.85266 | 6.62143 | 35150 ft | 512 kts | 179° |
| 2026-04-16 17:03 | 35.78151 | 6.62353 | 35170 ft | 514 kts | 180° |
| 2026-04-16 17:04 | 35.71013 | 6.62564 | 35158 ft | 513 kts | 180° |
| 2026-04-16 17:04 | 35.63858 | 6.62775 | 35163 ft | 512 kts | 180° |
| 2026-04-16 17:05 | 35.56685 | 6.62986 | 35158 ft | 513 kts | 180° |
| 2026-04-16 17:05 | 35.49545 | 6.63196 | 35154 ft | 512 kts | 180° |
| 2026-04-16 17:06 | 35.42410 | 6.63405 | 35158 ft | 513 kts | 180° |
| 2026-04-16 17:06 | 35.35252 | 6.63614 | 35166 ft | 513 kts | 180° |
| 2026-04-16 17:07 | 35.28081 | 6.63824 | 35159 ft | 512 kts | 181° |
| 2026-04-16 17:07 | 35.20947 | 6.64032 | 35165 ft | 513 kts | 181° |
| 2026-04-16 17:08 | 35.13804 | 6.64240 | 35165 ft | 512 kts | 181° |
| 2026-04-16 17:08 | 35.06668 | 6.64448 | 35156 ft | 512 kts | 181° |
| 2026-04-16 17:09 | 34.99559 | 6.64654 | 35158 ft | 513 kts | 181° |
| 2026-04-16 17:09 | 34.92442 | 6.64862 | 35140 ft | 501 kts | 181° |
| 2026-04-16 17:10 | 34.85399 | 6.65064 | 35127 ft | 509 kts | 182° |
| 2026-04-16 17:10 | 34.78255 | 6.65269 | 35107 ft | 515 kts | 182° |
| 2026-04-16 17:11 | 34.71072 | 6.65487 | 35098 ft | 514 kts | 182° |
| 2026-04-16 17:11 | 34.63877 | 6.65704 | 35089 ft | 514 kts | 182° |
| 2026-04-16 17:12 | 34.56753 | 6.65919 | 35087 ft | 513 kts | 182° |
| 2026-04-16 17:12 | 34.49603 | 6.66133 | 35075 ft | 515 kts | 183° |
| 2026-04-16 17:13 | 34.42405 | 6.66349 | 35076 ft | 516 kts | 183° |
| 2026-04-16 17:13 | 34.35265 | 6.66563 | 35068 ft | 515 kts | 183° |
| 2026-04-16 17:14 | 34.28072 | 6.66777 | 35061 ft | 518 kts | 183° |
| 2026-04-16 17:14 | 34.20839 | 6.66992 | 35059 ft | 518 kts | 183° |
| 2026-04-16 17:15 | 34.13638 | 6.67207 | 35058 ft | 516 kts | 183° |
| 2026-04-16 17:15 | 34.06391 | 6.67421 | 35057 ft | 519 kts | 184° |
| 2026-04-16 17:16 | 33.99162 | 6.67636 | 35057 ft | 519 kts | 184° |
| 2026-04-16 17:16 | 33.91875 | 6.67851 | 35053 ft | 519 kts | 184° |
| 2026-04-16 17:17 | 33.84679 | 6.68064 | 35046 ft | 519 kts | 184° |
| 2026-04-16 17:17 | 33.77411 | 6.68278 | 35052 ft | 519 kts | 184° |
| 2026-04-16 17:18 | 33.70171 | 6.68491 | 35054 ft | 521 kts | 184° |
| 2026-04-16 17:18 | 33.62957 | 6.68704 | 35051 ft | 519 kts | 184° |
| 2026-04-16 17:19 | 33.55657 | 6.68917 | 35054 ft | 521 kts | 184° |
| 2026-04-16 17:19 | 33.48344 | 6.69132 | 35049 ft | 519 kts | 184° |
| 2026-04-16 17:20 | 33.41126 | 6.69343 | 35056 ft | 520 kts | 184° |
| 2026-04-16 17:20 | 33.33782 | 6.69557 | 35047 ft | 519 kts | 184° |
| 2026-04-16 17:21 | 33.26537 | 6.69768 | 35045 ft | 520 kts | 185° |
| 2026-04-16 17:21 | 33.19219 | 6.69981 | 35049 ft | 520 kts | 185° |
| 2026-04-16 17:22 | 33.11926 | 6.70193 | 35047 ft | 520 kts | 185° |
| 2026-04-16 17:22 | 33.04602 | 6.70406 | 35053 ft | 518 kts | 185° |
| 2026-04-16 17:23 | 32.97302 | 6.70617 | 35051 ft | 519 kts | 185° |
| 2026-04-16 17:23 | 32.90028 | 6.70826 | 35052 ft | 520 kts | 185° |
| 2026-04-16 17:24 | 32.82748 | 6.71037 | 35042 ft | 518 kts | 185° |
| 2026-04-16 17:24 | 32.75569 | 6.71244 | 35046 ft | 517 kts | 185° |
| 2026-04-16 17:25 | 32.68350 | 6.71451 | 35045 ft | 518 kts | 185° |
| 2026-04-16 17:25 | 32.61185 | 6.71657 | 35049 ft | 515 kts | 185° |
| 2026-04-16 17:26 | 32.53940 | 6.71865 | 35052 ft | 514 kts | 185° |
| 2026-04-16 17:26 | 32.46732 | 6.72070 | 35053 ft | 515 kts | 185° |
| 2026-04-16 17:27 | 32.39575 | 6.72275 | 35053 ft | 515 kts | 185° |
| 2026-04-16 17:27 | 32.32443 | 6.72480 | 35055 ft | 511 kts | 185° |
| 2026-04-16 17:28 | 32.25249 | 6.72684 | 35058 ft | 512 kts | 185° |
| 2026-04-16 17:28 | 32.21684 | 6.72785 | 35236 ft | 513 kts | 185° |
| 2026-04-16 17:28 | 32.18097 | 6.72887 | 35055 ft | 511 kts | 185° |
| 2026-04-16 17:29 | 32.10981 | 6.73090 | 35061 ft | 509 kts | 185° |
| 2026-04-16 17:29 | 32.03864 | 6.73291 | 34892 ft | 509 kts | 185° |
| 2026-04-16 17:29 | 32.00311 | 6.73392 | 35034 ft | 508 kts | 185° |
| 2026-04-16 17:30 | 31.96752 | 6.73491 | 35242 ft | 512 kts | 185° |
| 2026-04-16 17:30 | 31.93174 | 6.73592 | 35055 ft | 511 kts | 185° |
| 2026-04-16 17:30 | 31.89638 | 6.73694 | 35057 ft | 504 kts | 185° |
| 2026-04-16 17:31 | 31.82575 | 6.73892 | 35050 ft | 508 kts | 184° |
| 2026-04-16 17:31 | 31.75488 | 6.74092 | 35049 ft | 507 kts | 184° |
| 2026-04-16 17:32 | 31.68442 | 6.74290 | 35048 ft | 506 kts | 184° |
| 2026-04-16 17:32 | 31.61420 | 6.74487 | 35047 ft | 507 kts | 184° |
| 2026-04-16 17:33 | 31.54389 | 6.74685 | 35047 ft | 505 kts | 184° |
| 2026-04-16 17:33 | 31.47344 | 6.74882 | 35046 ft | 504 kts | 184° |
| 2026-04-16 17:34 | 31.40317 | 6.75079 | 35047 ft | 503 kts | 184° |
| 2026-04-16 17:34 | 31.33326 | 6.75273 | 35047 ft | 504 kts | 184° |
| 2026-04-16 17:35 | 31.26300 | 6.75469 | 35049 ft | 504 kts | 184° |
| 2026-04-16 17:35 | 31.19328 | 6.75663 | 35048 ft | 502 kts | 184° |
| 2026-04-16 17:36 | 31.12306 | 6.75858 | 35049 ft | 502 kts | 184° |
| 2026-04-16 17:36 | 31.05316 | 6.76053 | 35049 ft | 502 kts | 184° |
| 2026-04-16 17:37 | 30.98367 | 6.76245 | 35047 ft | 500 kts | 184° |
| 2026-04-16 17:37 | 30.91367 | 6.76438 | 35045 ft | 502 kts | 184° |
| 2026-04-16 17:38 | 30.84391 | 6.76631 | 35042 ft | 501 kts | 184° |
| 2026-04-16 17:38 | 30.77401 | 6.76824 | 35041 ft | 501 kts | 184° |
| 2026-04-16 17:39 | 30.70425 | 6.77017 | 35040 ft | 499 kts | 184° |
| 2026-04-16 17:39 | 30.63502 | 6.77207 | 35041 ft | 500 kts | 184° |
| 2026-04-16 17:40 | 30.56561 | 6.77398 | 35040 ft | 499 kts | 184° |
| 2026-04-16 17:40 | 30.49591 | 6.77589 | 35038 ft | 498 kts | 184° |
| 2026-04-16 17:41 | 30.42663 | 6.77778 | 35040 ft | 499 kts | 184° |
| 2026-04-16 17:41 | 30.35720 | 6.77968 | 35043 ft | 499 kts | 184° |
| 2026-04-16 17:42 | 30.28797 | 6.78158 | 35038 ft | 497 kts | 184° |
| 2026-04-16 17:42 | 30.21885 | 6.78346 | 35041 ft | 498 kts | 184° |
| 2026-04-16 17:43 | 30.14942 | 6.78535 | 35040 ft | 497 kts | 184° |
| 2026-04-16 17:43 | 30.08026 | 6.78723 | 35039 ft | 496 kts | 184° |
| 2026-04-16 17:44 | 30.01161 | 6.78910 | 35036 ft | 495 kts | 184° |
| 2026-04-16 17:44 | 29.94273 | 6.79096 | 35027 ft | 496 kts | 184° |
| 2026-04-16 17:45 | 29.87351 | 6.79284 | 35015 ft | 495 kts | 184° |
| 2026-04-16 17:45 | 29.80446 | 6.79471 | 35018 ft | 496 kts | 184° |
| 2026-04-16 17:46 | 29.73551 | 6.79657 | 35018 ft | 494 kts | 184° |
| 2026-04-16 17:46 | 29.66674 | 6.79842 | 35018 ft | 494 kts | 184° |
| 2026-04-16 17:46 | 29.63263 | 6.79935 | 35125 ft | 492 kts | 184° |
| 2026-04-16 17:47 | 29.59826 | 6.80026 | 35119 ft | 495 kts | 184° |
| 2026-04-16 17:47 | 29.52930 | 6.80213 | 34893 ft | 491 kts | 184° |
| 2026-04-16 17:47 | 29.49503 | 6.80305 | 35011 ft | 494 kts | 184° |
| 2026-04-16 17:48 | 29.46037 | 6.80396 | 35020 ft | 496 kts | 184° |
| 2026-04-16 17:48 | 29.39173 | 6.80582 | 35023 ft | 492 kts | 184° |
| 2026-04-16 17:49 | 29.32269 | 6.80767 | 35021 ft | 494 kts | 184° |
| 2026-04-16 17:49 | 29.25426 | 6.80950 | 35022 ft | 492 kts | 184° |
| 2026-04-16 17:50 | 29.18545 | 6.81134 | 35023 ft | 491 kts | 184° |
| 2026-04-16 17:50 | 29.11674 | 6.81317 | 35024 ft | 492 kts | 184° |
| 2026-04-16 17:51 | 29.04822 | 6.81500 | 35027 ft | 490 kts | 185° |
| 2026-04-16 17:51 | 28.97995 | 6.81681 | 35029 ft | 491 kts | 184° |
| 2026-04-16 17:52 | 28.91162 | 6.81864 | 35029 ft | 487 kts | 184° |
| 2026-04-16 17:52 | 28.84359 | 6.82043 | 35018 ft | 490 kts | 184° |
| 2026-04-16 17:53 | 28.77529 | 6.82225 | 35020 ft | 489 kts | 184° |
| 2026-04-16 17:53 | 28.70718 | 6.82406 | 35028 ft | 487 kts | 184° |
| 2026-04-16 17:54 | 28.63943 | 6.82584 | 35030 ft | 486 kts | 185° |
| 2026-04-16 17:54 | 28.57180 | 6.82762 | 35040 ft | 488 kts | 185° |
| 2026-04-16 17:55 | 28.50400 | 6.82941 | 35039 ft | 488 kts | 185° |
| 2026-04-16 17:55 | 28.43565 | 6.83122 | 35038 ft | 485 kts | 185° |
| 2026-04-16 17:56 | 28.36788 | 6.83300 | 35035 ft | 485 kts | 185° |
| 2026-04-16 17:56 | 28.26634 | 6.83566 | 35039 ft | 486 kts | 185° |
| 2026-04-16 17:57 | 28.19856 | 6.83744 | 35039 ft | 486 kts | 185° |
| 2026-04-16 17:57 | 28.13100 | 6.84320 | 35028 ft | 494 kts | 174° |
| 2026-04-16 17:58 | 28.06438 | 6.86735 | 35041 ft | 504 kts | 165° |
| 2026-04-16 17:58 | 27.99912 | 6.89455 | 35037 ft | 502 kts | 165° |
| 2026-04-16 17:59 | 27.93335 | 6.92189 | 35033 ft | 502 kts | 166° |
| 2026-04-16 17:59 | 27.86751 | 6.94917 | 35040 ft | 503 kts | 166° |
| 2026-04-16 18:00 | 27.80199 | 6.97628 | 35036 ft | 501 kts | 166° |
| 2026-04-16 18:00 | 27.73634 | 7.00338 | 35041 ft | 503 kts | 166° |
| 2026-04-16 18:01 | 27.67054 | 7.03051 | 35036 ft | 502 kts | 166° |
| 2026-04-16 18:01 | 27.60494 | 7.05752 | 35042 ft | 502 kts | 166° |
| 2026-04-16 18:02 | 27.53932 | 7.08450 | 35044 ft | 502 kts | 166° |
| 2026-04-16 18:02 | 27.47362 | 7.11147 | 35044 ft | 501 kts | 166° |
| 2026-04-16 18:03 | 27.40851 | 7.13817 | 35043 ft | 501 kts | 166° |
| 2026-04-16 18:03 | 27.34295 | 7.16502 | 35045 ft | 502 kts | 166° |
| 2026-04-16 18:04 | 27.27711 | 7.19195 | 35040 ft | 499 kts | 166° |
| 2026-04-16 18:04 | 27.21148 | 7.21875 | 35041 ft | 501 kts | 167° |
| 2026-04-16 18:05 | 27.14656 | 7.24525 | 35046 ft | 500 kts | 167° |
| 2026-04-16 18:05 | 27.08088 | 7.27200 | 35047 ft | 502 kts | 167° |
| 2026-04-16 18:06 | 27.01524 | 7.29873 | 35037 ft | 500 kts | 167° |
| 2026-04-16 18:06 | 26.94959 | 7.32540 | 35036 ft | 502 kts | 167° |
| 2026-04-16 18:07 | 26.88343 | 7.35226 | 35034 ft | 503 kts | 167° |
| 2026-04-16 18:07 | 26.81772 | 7.37892 | 35040 ft | 501 kts | 167° |
| 2026-04-16 18:08 | 26.75220 | 7.40544 | 35047 ft | 502 kts | 167° |
| 2026-04-16 18:08 | 26.68687 | 7.43187 | 35048 ft | 501 kts | 167° |
| 2026-04-16 18:09 | 26.62097 | 7.45849 | 35050 ft | 500 kts | 167° |
| 2026-04-16 18:09 | 26.55492 | 7.48512 | 35052 ft | 503 kts | 167° |
| 2026-04-16 18:10 | 26.48887 | 7.51175 | 35059 ft | 503 kts | 167° |
| 2026-04-16 18:10 | 26.42295 | 7.53828 | 35066 ft | 503 kts | 167° |
| 2026-04-16 18:11 | 26.35718 | 7.56473 | 35074 ft | 501 kts | 167° |
| 2026-04-16 18:11 | 26.29191 | 7.59093 | 35092 ft | 502 kts | 167° |
| 2026-04-16 18:12 | 26.22588 | 7.61741 | 35097 ft | 502 kts | 167° |
| 2026-04-16 18:12 | 26.16014 | 7.64375 | 35108 ft | 501 kts | 167° |
| 2026-04-16 18:13 | 26.09427 | 7.67010 | 35101 ft | 500 kts | 168° |
| 2026-04-16 18:13 | 26.02796 | 7.69658 | 35104 ft | 504 kts | 168° |
| 2026-04-16 18:14 | 25.96216 | 7.72300 | 35107 ft | 503 kts | 168° |
| 2026-04-16 18:14 | 25.89667 | 7.74955 | 35115 ft | 502 kts | 168° |
| 2026-04-16 18:15 | 25.83097 | 7.77614 | 35115 ft | 500 kts | 168° |
| 2026-04-16 18:15 | 25.76536 | 7.80262 | 35118 ft | 502 kts | 168° |
| 2026-04-16 18:16 | 25.70000 | 7.82898 | 35121 ft | 503 kts | 168° |
| 2026-04-16 18:16 | 25.63434 | 7.85545 | 35126 ft | 499 kts | 168° |
| 2026-04-16 18:17 | 25.56908 | 7.88169 | 35134 ft | 503 kts | 168° |
| 2026-04-16 18:17 | 25.50326 | 7.90815 | 35127 ft | 502 kts | 168° |
| 2026-04-16 18:18 | 25.43755 | 7.93454 | 35138 ft | 499 kts | 169° |
| 2026-04-16 18:18 | 25.37196 | 7.96082 | 35150 ft | 503 kts | 169° |
| 2026-04-16 18:19 | 25.30665 | 7.98700 | 35152 ft | 495 kts | 168° |
| 2026-04-16 18:19 | 25.24136 | 8.01309 | 35162 ft | 502 kts | 169° |
| 2026-04-16 18:20 | 25.17626 | 8.03913 | 35170 ft | 496 kts | 169° |
| 2026-04-16 18:20 | 25.11047 | 8.06536 | 35171 ft | 500 kts | 169° |
| 2026-04-16 18:21 | 25.04501 | 8.09147 | 35169 ft | 496 kts | 169° |
| 2026-04-16 18:21 | 24.97990 | 8.11738 | 35175 ft | 500 kts | 169° |
| 2026-04-16 18:22 | 24.91499 | 8.14324 | 35165 ft | 493 kts | 169° |
| 2026-04-16 18:22 | 24.84924 | 8.16930 | 35160 ft | 502 kts | 169° |
| 2026-04-16 18:23 | 24.78397 | 8.19523 | 35150 ft | 498 kts | 169° |
| 2026-04-16 18:23 | 24.71882 | 8.22107 | 35139 ft | 496 kts | 170° |
| 2026-04-16 18:24 | 24.65378 | 8.24682 | 35131 ft | 496 kts | 170° |
| 2026-04-16 18:24 | 24.58839 | 8.27266 | 35124 ft | 499 kts | 170° |
| 2026-04-16 18:25 | 24.52309 | 8.29846 | 35128 ft | 501 kts | 170° |
| 2026-04-16 18:25 | 24.45757 | 8.32435 | 35115 ft | 496 kts | 170° |
| 2026-04-16 18:26 | 24.39205 | 8.35014 | 35111 ft | 501 kts | 170° |
| 2026-04-16 18:26 | 24.32656 | 8.37595 | 35099 ft | 500 kts | 170° |
| 2026-04-16 18:27 | 24.26084 | 8.40182 | 35094 ft | 496 kts | 171° |
| 2026-04-16 18:27 | 24.19616 | 8.42723 | 35077 ft | 496 kts | 171° |
| 2026-04-16 18:28 | 24.13055 | 8.45293 | 35081 ft | 503 kts | 171° |
| 2026-04-16 18:28 | 24.06551 | 8.47850 | 35080 ft | 492 kts | 171° |
| 2026-04-16 18:29 | 24.00036 | 8.50395 | 35079 ft | 500 kts | 171° |
| 2026-04-16 18:29 | 23.93504 | 8.52956 | 35066 ft | 493 kts | 171° |
| 2026-04-16 18:30 | 23.86961 | 8.55508 | 35067 ft | 499 kts | 171° |
| 2026-04-16 18:30 | 23.80474 | 8.58046 | 35061 ft | 491 kts | 171° |
| 2026-04-16 18:31 | 23.73991 | 8.60568 | 35070 ft | 499 kts | 171° |
| 2026-04-16 18:31 | 23.67533 | 8.63087 | 35067 ft | 494 kts | 171° |
| 2026-04-16 18:32 | 23.61066 | 8.65605 | 35058 ft | 494 kts | 172° |
| 2026-04-16 18:32 | 23.54530 | 8.68141 | 35049 ft | 498 kts | 171° |
| 2026-04-16 18:33 | 23.48071 | 8.70654 | 35056 ft | 491 kts | 171° |
| 2026-04-16 18:33 | 23.41621 | 8.73153 | 35055 ft | 496 kts | 171° |
| 2026-04-16 18:34 | 23.35085 | 8.75689 | 35054 ft | 490 kts | 172° |
| 2026-04-16 18:34 | 23.28635 | 8.78182 | 35053 ft | 494 kts | 171° |
| 2026-04-16 18:35 | 23.22222 | 8.80668 | 35051 ft | 488 kts | 171° |
| 2026-04-16 18:35 | 23.15793 | 8.83148 | 35044 ft | 489 kts | 171° |
| 2026-04-16 18:36 | 23.09345 | 8.85637 | 35039 ft | 489 kts | 172° |
| 2026-04-16 18:36 | 23.02939 | 8.88106 | 35040 ft | 489 kts | 171° |
| 2026-04-16 18:37 | 22.96529 | 8.90573 | 35038 ft | 491 kts | 171° |
| 2026-04-16 18:37 | 22.90100 | 8.93048 | 35032 ft | 489 kts | 171° |
| 2026-04-16 18:38 | 22.83672 | 8.95521 | 35035 ft | 486 kts | 171° |
| 2026-04-16 18:38 | 22.77253 | 8.97982 | 35027 ft | 490 kts | 171° |
| 2026-04-16 18:39 | 22.70831 | 9.00447 | 35016 ft | 487 kts | 171° |
| 2026-04-16 18:39 | 22.64457 | 9.02890 | 35010 ft | 487 kts | 171° |
| 2026-04-16 18:40 | 22.58011 | 9.05358 | 35005 ft | 486 kts | 171° |
| 2026-04-16 18:40 | 22.51600 | 9.07811 | 35000 ft | 487 kts | 171° |
| 2026-04-16 18:41 | 22.45181 | 9.10260 | 35001 ft | 489 kts | 171° |
| 2026-04-16 18:41 | 22.38743 | 9.12722 | 35000 ft | 483 kts | 171° |
| 2026-04-16 18:42 | 22.32360 | 9.15151 | 34999 ft | 489 kts | 171° |
| 2026-04-16 18:42 | 22.25982 | 9.17586 | 34995 ft | 482 kts | 171° |
| 2026-04-16 18:43 | 22.19587 | 9.20015 | 34994 ft | 487 kts | 170° |
| 2026-04-16 18:43 | 22.13213 | 9.22440 | 34997 ft | 487 kts | 171° |
| 2026-04-16 18:44 | 22.06814 | 9.24872 | 34993 ft | 484 kts | 171° |
| 2026-04-16 18:44 | 22.00389 | 9.27307 | 35000 ft | 489 kts | 171° |
| 2026-04-16 18:45 | 21.94019 | 9.29734 | 34992 ft | 485 kts | 169° |
| 2026-04-16 18:45 | 21.87707 | 9.32809 | 35007 ft | 500 kts | 164° |
| 2026-04-16 18:46 | 21.81441 | 9.35994 | 35009 ft | 495 kts | 164° |
| 2026-04-16 18:46 | 21.75135 | 9.39187 | 35009 ft | 495 kts | 164° |
| 2026-04-16 18:47 | 21.68838 | 9.42366 | 35008 ft | 496 kts | 164° |
| 2026-04-16 18:47 | 21.62603 | 9.45511 | 35010 ft | 497 kts | 164° |
| 2026-04-16 18:48 | 21.56294 | 9.48687 | 35007 ft | 497 kts | 164° |
| 2026-04-16 18:48 | 21.50033 | 9.51840 | 35005 ft | 494 kts | 164° |
| 2026-04-16 18:49 | 21.43767 | 9.54986 | 35006 ft | 495 kts | 164° |
| 2026-04-16 18:49 | 21.37524 | 9.58123 | 35005 ft | 493 kts | 164° |
| 2026-04-16 18:50 | 21.31249 | 9.61266 | 35009 ft | 498 kts | 164° |
| 2026-04-16 18:50 | 21.25000 | 9.64402 | 35005 ft | 492 kts | 164° |
| 2026-04-16 18:51 | 21.18750 | 9.67529 | 34975 ft | 494 kts | 164° |
| 2026-04-16 18:51 | 21.12474 | 9.70666 | 34960 ft | 494 kts | 164° |
| 2026-04-16 18:52 | 21.06258 | 9.73773 | 34956 ft | 495 kts | 164° |
| 2026-04-16 18:52 | 21.00014 | 9.76891 | 34949 ft | 492 kts | 164° |
| 2026-04-16 18:53 | 20.93810 | 9.79985 | 34946 ft | 493 kts | 164° |
| 2026-04-16 18:53 | 20.87581 | 9.83088 | 34951 ft | 491 kts | 164° |
| 2026-04-16 18:54 | 20.81371 | 9.86180 | 34945 ft | 491 kts | 164° |
| 2026-04-16 18:54 | 20.75159 | 9.89269 | 34941 ft | 492 kts | 164° |
| 2026-04-16 18:55 | 20.68939 | 9.92358 | 34943 ft | 495 kts | 164° |
| 2026-04-16 18:55 | 20.62682 | 9.95465 | 34940 ft | 494 kts | 164° |
| 2026-04-16 18:56 | 20.56417 | 9.98572 | 34941 ft | 494 kts | 164° |
| 2026-04-16 18:56 | 20.50209 | 10.01650 | 34937 ft | 493 kts | 164° |
| 2026-04-16 18:57 | 20.43949 | 10.04748 | 34935 ft | 494 kts | 163° |
| 2026-04-16 18:58 | 20.34595 | 10.09375 | 34934 ft | 493 kts | 163° |
| 2026-04-16 18:58 | 20.28339 | 10.12466 | 34933 ft | 491 kts | 163° |
| 2026-04-16 18:59 | 20.22166 | 10.15511 | 34934 ft | 494 kts | 163° |
| 2026-04-16 18:59 | 20.15940 | 10.18581 | 34935 ft | 495 kts | 163° |
| 2026-04-16 19:00 | 20.09715 | 10.21650 | 34934 ft | 492 kts | 163° |
| 2026-04-16 19:00 | 20.03478 | 10.24720 | 34940 ft | 492 kts | 163° |
| 2026-04-16 19:01 | 19.97239 | 10.27786 | 34935 ft | 494 kts | 163° |
| 2026-04-16 19:01 | 19.91030 | 10.30837 | 34936 ft | 494 kts | 163° |
| 2026-04-16 19:02 | 19.84781 | 10.33906 | 34941 ft | 493 kts | 163° |
| 2026-04-16 19:02 | 19.78552 | 10.36961 | 34941 ft | 495 kts | 163° |
| 2026-04-16 19:03 | 19.72268 | 10.40041 | 34938 ft | 496 kts | 163° |
| 2026-04-16 19:03 | 19.66035 | 10.43095 | 34939 ft | 493 kts | 163° |
| 2026-04-16 19:04 | 19.59790 | 10.46150 | 34935 ft | 493 kts | 163° |
| 2026-04-16 19:04 | 19.53568 | 10.49190 | 34935 ft | 495 kts | 163° |
| 2026-04-16 19:05 | 19.47310 | 10.52248 | 34933 ft | 492 kts | 163° |
| 2026-04-16 19:05 | 19.41072 | 10.55291 | 34936 ft | 496 kts | 163° |
| 2026-04-16 19:06 | 19.34797 | 10.58352 | 34940 ft | 494 kts | 163° |
| 2026-04-16 19:06 | 19.28536 | 10.61401 | 34940 ft | 493 kts | 162° |
| 2026-04-16 19:07 | 19.22271 | 10.64450 | 34937 ft | 496 kts | 162° |
| 2026-04-16 19:07 | 19.16023 | 10.67491 | 34921 ft | 493 kts | 163° |
| 2026-04-16 19:08 | 19.09742 | 10.70541 | 34922 ft | 498 kts | 163° |
| 2026-04-16 19:08 | 19.03453 | 10.73596 | 34919 ft | 493 kts | 162° |
| 2026-04-16 19:09 | 18.97211 | 10.76623 | 34917 ft | 496 kts | 163° |
| 2026-04-16 19:09 | 18.90962 | 10.79653 | 34917 ft | 494 kts | 163° |
| 2026-04-16 19:10 | 18.84676 | 10.82698 | 34922 ft | 494 kts | 162° |
| 2026-04-16 19:10 | 18.78411 | 10.85729 | 34924 ft | 495 kts | 162° |
| 2026-04-16 19:11 | 18.72153 | 10.88755 | 34923 ft | 495 kts | 162° |
| 2026-04-16 19:11 | 18.65899 | 10.91776 | 34922 ft | 496 kts | 162° |
| 2026-04-16 19:12 | 18.59617 | 10.94810 | 34920 ft | 494 kts | 162° |
| 2026-04-16 19:12 | 18.53352 | 10.97831 | 34916 ft | 495 kts | 162° |
| 2026-04-16 19:13 | 18.47100 | 11.00845 | 34917 ft | 495 kts | 162° |
| 2026-04-16 19:13 | 18.40855 | 11.03852 | 34910 ft | 492 kts | 162° |
| 2026-04-16 19:14 | 18.34584 | 11.06867 | 34906 ft | 496 kts | 162° |
| 2026-04-16 19:14 | 18.28342 | 11.09869 | 34899 ft | 492 kts | 162° |
| 2026-04-16 19:15 | 18.22096 | 11.12869 | 34897 ft | 493 kts | 162° |
| 2026-04-16 19:15 | 18.15835 | 11.15872 | 34901 ft | 496 kts | 162° |
| 2026-04-16 19:16 | 18.09569 | 11.18878 | 34899 ft | 493 kts | 162° |
| 2026-04-16 19:16 | 18.03322 | 11.21871 | 34894 ft | 494 kts | 162° |
| 2026-04-16 19:17 | 17.97035 | 11.24881 | 34893 ft | 495 kts | 162° |
| 2026-04-16 19:17 | 17.90778 | 11.27875 | 34897 ft | 493 kts | 162° |
| 2026-04-16 19:18 | 17.84525 | 11.30863 | 34896 ft | 497 kts | 162° |
| 2026-04-16 19:18 | 17.78221 | 11.33876 | 34897 ft | 493 kts | 162° |
| 2026-04-16 19:19 | 17.71987 | 11.36851 | 34894 ft | 494 kts | 162° |
| 2026-04-16 19:19 | 17.65721 | 11.39839 | 34895 ft | 495 kts | 162° |
| 2026-04-16 19:20 | 17.59382 | 11.42859 | 34897 ft | 497 kts | 162° |
| 2026-04-16 19:20 | 17.53115 | 11.45846 | 34899 ft | 495 kts | 162° |
| 2026-04-16 19:21 | 17.46829 | 11.48836 | 34892 ft | 497 kts | 162° |
| 2026-04-16 19:21 | 17.40348 | 11.51217 | 34899 ft | 488 kts | 170° |
| 2026-04-16 19:22 | 17.33805 | 11.53174 | 34889 ft | 489 kts | 170° |
| 2026-04-16 19:22 | 17.27270 | 11.55127 | 34888 ft | 487 kts | 170° |
| 2026-04-16 19:23 | 17.20731 | 11.57080 | 34885 ft | 489 kts | 170° |
| 2026-04-16 19:23 | 17.14192 | 11.59033 | 34886 ft | 487 kts | 170° |
| 2026-04-16 19:24 | 17.07602 | 11.60999 | 34888 ft | 488 kts | 170° |
| 2026-04-16 19:24 | 17.01070 | 11.62948 | 34888 ft | 490 kts | 170° |
| 2026-04-16 19:25 | 16.94537 | 11.64897 | 34887 ft | 488 kts | 170° |
| 2026-04-16 19:25 | 16.87967 | 11.66853 | 34874 ft | 490 kts | 171° |
| 2026-04-16 19:26 | 16.81430 | 11.68800 | 34874 ft | 488 kts | 171° |
| 2026-04-16 19:26 | 16.74846 | 11.70758 | 34875 ft | 488 kts | 170° |
| 2026-04-16 19:27 | 16.68351 | 11.72688 | 34875 ft | 489 kts | 170° |
| 2026-04-16 19:27 | 16.61779 | 11.74641 | 34875 ft | 486 kts | 170° |
| 2026-04-16 19:28 | 16.55259 | 11.76577 | 34873 ft | 486 kts | 170° |
| 2026-04-16 19:28 | 16.48749 | 11.78507 | 34873 ft | 489 kts | 170° |
| 2026-04-16 19:29 | 16.42208 | 11.80446 | 34865 ft | 486 kts | 170° |
| 2026-04-16 19:29 | 16.35708 | 11.82371 | 34857 ft | 489 kts | 170° |
| 2026-04-16 19:30 | 16.29201 | 11.84298 | 34857 ft | 486 kts | 170° |
| 2026-04-16 19:30 | 16.22699 | 11.86222 | 34854 ft | 485 kts | 170° |
| 2026-04-16 19:31 | 16.16177 | 11.88149 | 34852 ft | 485 kts | 170° |
| 2026-04-16 19:31 | 16.09720 | 11.90057 | 34850 ft | 484 kts | 170° |
| 2026-04-16 19:32 | 16.03184 | 11.91986 | 34848 ft | 485 kts | 170° |
| 2026-04-16 19:32 | 15.96708 | 11.93897 | 34847 ft | 483 kts | 170° |
| 2026-04-16 19:33 | 15.90240 | 11.95804 | 34846 ft | 483 kts | 169° |
| 2026-04-16 19:33 | 15.83751 | 11.97715 | 34849 ft | 483 kts | 170° |
| 2026-04-16 19:34 | 15.77263 | 11.99625 | 34848 ft | 484 kts | 170° |
| 2026-04-16 19:34 | 15.70762 | 12.01538 | 34857 ft | 484 kts | 170° |
| 2026-04-16 19:35 | 15.64260 | 12.03449 | 34850 ft | 486 kts | 169° |
| 2026-04-16 19:35 | 15.57743 | 12.05365 | 34848 ft | 484 kts | 170° |
| 2026-04-16 19:36 | 15.51214 | 12.07281 | 34833 ft | 486 kts | 170° |
| 2026-04-16 19:36 | 15.44729 | 12.09185 | 34828 ft | 484 kts | 169° |
| 2026-04-16 19:37 | 15.38202 | 12.11099 | 34823 ft | 486 kts | 170° |
| 2026-04-16 19:37 | 15.31675 | 12.13012 | 34822 ft | 485 kts | 170° |
| 2026-04-16 19:38 | 15.25178 | 12.14913 | 34816 ft | 487 kts | 170° |
| 2026-04-16 19:38 | 15.18616 | 12.16826 | 34818 ft | 487 kts | 169° |
| 2026-04-16 19:39 | 15.12101 | 12.18723 | 34810 ft | 488 kts | 170° |
| 2026-04-16 19:39 | 15.05552 | 12.20631 | 34799 ft | 486 kts | 169° |
| 2026-04-16 19:40 | 14.99017 | 12.22531 | 34798 ft | 487 kts | 169° |
| 2026-04-16 19:40 | 14.92506 | 12.24425 | 34795 ft | 487 kts | 170° |
| 2026-04-16 19:41 | 14.85925 | 12.26337 | 34803 ft | 487 kts | 169° |
| 2026-04-16 19:41 | 14.79407 | 12.28230 | 34810 ft | 488 kts | 169° |
| 2026-04-16 19:42 | 14.72821 | 12.30141 | 34817 ft | 488 kts | 169° |
| 2026-04-16 19:42 | 14.66274 | 12.32040 | 34818 ft | 488 kts | 169° |
| 2026-04-16 19:43 | 14.59756 | 12.33930 | 34813 ft | 486 kts | 169° |
| 2026-04-16 19:43 | 14.53201 | 12.35829 | 34808 ft | 489 kts | 169° |
| 2026-04-16 19:44 | 14.46664 | 12.37722 | 34804 ft | 488 kts | 169° |
| 2026-04-16 19:44 | 14.40085 | 12.39626 | 34808 ft | 488 kts | 169° |
| 2026-04-16 19:45 | 14.33517 | 12.41525 | 34808 ft | 489 kts | 169° |
| 2026-04-16 19:45 | 14.26950 | 12.43422 | 34809 ft | 490 kts | 169° |
| 2026-04-16 19:46 | 14.20402 | 12.45314 | 34808 ft | 489 kts | 169° |
| 2026-04-16 19:46 | 14.13833 | 12.47201 | 34804 ft | 488 kts | 169° |
| 2026-04-16 19:47 | 14.07270 | 12.49079 | 34800 ft | 490 kts | 169° |
| 2026-04-16 19:47 | 14.00702 | 12.50960 | 34802 ft | 489 kts | 169° |
| 2026-04-16 19:48 | 13.94111 | 12.52847 | 34805 ft | 490 kts | 169° |
| 2026-04-16 19:48 | 13.87527 | 12.54730 | 34809 ft | 489 kts | 169° |
| 2026-04-16 19:49 | 13.80979 | 12.56599 | 34808 ft | 488 kts | 169° |
| 2026-04-16 19:49 | 13.74395 | 12.58481 | 34808 ft | 488 kts | 168° |
| 2026-04-16 19:50 | 13.67853 | 12.60349 | 34803 ft | 488 kts | 169° |
| 2026-04-16 19:50 | 13.61297 | 12.62221 | 34797 ft | 487 kts | 169° |
| 2026-04-16 19:51 | 13.54778 | 12.64080 | 34793 ft | 487 kts | 168° |
| 2026-04-16 19:51 | 13.48232 | 12.65945 | 34781 ft | 487 kts | 169° |
| 2026-04-16 19:52 | 13.41671 | 12.67814 | 34778 ft | 486 kts | 169° |
| 2026-04-16 19:52 | 13.35120 | 12.69678 | 34772 ft | 487 kts | 169° |
| 2026-04-16 19:53 | 13.28581 | 12.71538 | 34772 ft | 487 kts | 168° |
| 2026-04-16 19:53 | 13.22057 | 12.73329 | 34775 ft | 486 kts | 169° |
| 2026-04-16 19:54 | 13.15529 | 12.75097 | 34777 ft | 486 kts | 169° |
| 2026-04-16 19:54 | 13.08963 | 12.76877 | 34779 ft | 486 kts | 169° |
| 2026-04-16 19:55 | 13.02446 | 12.78644 | 34778 ft | 486 kts | 169° |
| 2026-04-16 19:55 | 12.95878 | 12.80424 | 34777 ft | 486 kts | 169° |
| 2026-04-16 19:56 | 12.89347 | 12.82195 | 34775 ft | 484 kts | 169° |
| 2026-04-16 19:56 | 12.82828 | 12.83962 | 34776 ft | 483 kts | 169° |
| 2026-04-16 19:57 | 12.76297 | 12.85730 | 34776 ft | 485 kts | 169° |
| 2026-04-16 19:57 | 12.69762 | 12.87499 | 34786 ft | 482 kts | 169° |
| 2026-04-16 19:58 | 12.63246 | 12.89262 | 34787 ft | 483 kts | 169° |
| 2026-04-16 19:58 | 12.56729 | 12.91024 | 34782 ft | 484 kts | 169° |
| 2026-04-16 19:59 | 12.50250 | 12.92776 | 34783 ft | 482 kts | 169° |
| 2026-04-16 19:59 | 12.43725 | 12.94538 | 34780 ft | 483 kts | 169° |
| 2026-04-16 20:00 | 12.33975 | 12.97170 | 34779 ft | 482 kts | 168° |
| 2026-04-16 20:00 | 12.27446 | 12.98931 | 34780 ft | 482 kts | 168° |
| 2026-04-16 20:01 | 12.20952 | 13.00681 | 34778 ft | 481 kts | 168° |
| 2026-04-16 20:01 | 12.14461 | 13.02430 | 34779 ft | 482 kts | 168° |
| 2026-04-16 20:02 | 12.07974 | 13.04176 | 34780 ft | 482 kts | 168° |
| 2026-04-16 20:02 | 12.01520 | 13.05913 | 34781 ft | 481 kts | 168° |
| 2026-04-16 20:03 | 11.95001 | 13.07667 | 34782 ft | 481 kts | 168° |
| 2026-04-16 20:03 | 11.88516 | 13.09406 | 34780 ft | 481 kts | 169° |
| 2026-04-16 20:04 | 11.81886 | 13.10332 | 34786 ft | 477 kts | 177° |
| 2026-04-16 20:04 | 11.75284 | 13.10989 | 34788 ft | 478 kts | 177° |
| 2026-04-16 20:05 | 11.68633 | 13.11651 | 34795 ft | 478 kts | 177° |
| 2026-04-16 20:05 | 11.62015 | 13.12313 | 34798 ft | 478 kts | 177° |
| 2026-04-16 20:06 | 11.55365 | 13.12979 | 34805 ft | 478 kts | 178° |
| 2026-04-16 20:06 | 11.48693 | 13.13645 | 34810 ft | 479 kts | 177° |
| 2026-04-16 20:07 | 11.42018 | 13.14313 | 34812 ft | 479 kts | 177° |
| 2026-04-16 20:07 | 11.35345 | 13.14981 | 34813 ft | 480 kts | 177° |
| 2026-04-16 20:08 | 11.28686 | 13.15647 | 34815 ft | 479 kts | 177° |
| 2026-04-16 20:08 | 11.22037 | 13.16312 | 34815 ft | 479 kts | 177° |
| 2026-04-16 20:09 | 11.15383 | 13.16976 | 34818 ft | 479 kts | 177° |
| 2026-04-16 20:09 | 11.08752 | 13.17639 | 34818 ft | 479 kts | 176° |
| 2026-04-16 20:10 | 11.02071 | 13.18305 | 34823 ft | 481 kts | 176° |
| 2026-04-16 20:10 | 10.95391 | 13.18972 | 34826 ft | 481 kts | 176° |
| 2026-04-16 20:11 | 10.88692 | 13.19640 | 34831 ft | 480 kts | 176° |
| 2026-04-16 20:11 | 10.82055 | 13.20301 | 34834 ft | 480 kts | 176° |
| 2026-04-16 20:12 | 10.75380 | 13.20966 | 34846 ft | 479 kts | 176° |
| 2026-04-16 20:12 | 10.68741 | 13.21627 | 34847 ft | 480 kts | 176° |
| 2026-04-16 20:13 | 10.62097 | 13.22289 | 34839 ft | 479 kts | 176° |
| 2026-04-16 20:13 | 10.55439 | 13.22951 | 34835 ft | 479 kts | 176° |
| 2026-04-16 20:14 | 10.48774 | 13.23614 | 34842 ft | 481 kts | 176° |
| 2026-04-16 20:14 | 10.42093 | 13.24278 | 34849 ft | 481 kts | 176° |
| 2026-04-16 20:15 | 10.35427 | 13.24941 | 34860 ft | 481 kts | 176° |
| 2026-04-16 20:15 | 10.28749 | 13.25604 | 34867 ft | 480 kts | 176° |
| 2026-04-16 20:16 | 10.22114 | 13.26263 | 34872 ft | 479 kts | 176° |
| 2026-04-16 20:16 | 10.15452 | 13.26924 | 34867 ft | 478 kts | 176° |
| 2026-04-16 20:17 | 10.08808 | 13.27583 | 34867 ft | 479 kts | 176° |
| 2026-04-16 20:17 | 10.02159 | 13.28233 | 34860 ft | 479 kts | 177° |
| 2026-04-16 20:18 | 9.95502 | 13.28829 | 34856 ft | 479 kts | 177° |
| 2026-04-16 20:18 | 9.88834 | 13.29426 | 34840 ft | 480 kts | 177° |
| 2026-04-16 20:19 | 9.82164 | 13.30025 | 34824 ft | 478 kts | 176° |
| 2026-04-16 20:19 | 9.75500 | 13.30625 | 34811 ft | 478 kts | 177° |
| 2026-04-16 20:20 | 9.68874 | 13.31220 | 34803 ft | 478 kts | 176° |
| 2026-04-16 20:20 | 9.62206 | 13.31820 | 34798 ft | 479 kts | 176° |
| 2026-04-16 20:21 | 9.55553 | 13.32420 | 34794 ft | 479 kts | 176° |
| 2026-04-16 20:21 | 9.48921 | 13.33030 | 34794 ft | 478 kts | 176° |
| 2026-04-16 20:22 | 9.42247 | 13.33644 | 34786 ft | 479 kts | 176° |
| 2026-04-16 20:22 | 9.35616 | 13.34253 | 34777 ft | 479 kts | 176° |
| 2026-04-16 20:23 | 9.28944 | 13.34907 | 34765 ft | 478 kts | 176° |
| 2026-04-16 20:23 | 9.22326 | 13.35605 | 34756 ft | 478 kts | 176° |
| 2026-04-16 20:24 | 9.15715 | 13.36299 | 34759 ft | 479 kts | 175° |
| 2026-04-16 20:24 | 9.09038 | 13.36998 | 34756 ft | 479 kts | 175° |
| 2026-04-16 20:25 | 9.02377 | 13.37693 | 34760 ft | 478 kts | 175° |
| 2026-04-16 20:25 | 8.95756 | 13.38384 | 34759 ft | 478 kts | 175° |
| 2026-04-16 20:26 | 8.89137 | 13.39074 | 34772 ft | 478 kts | 175° |
| 2026-04-16 20:26 | 8.82604 | 13.39755 | 34780 ft | 476 kts | 175° |
| 2026-04-16 20:27 | 8.75990 | 13.40444 | 34785 ft | 477 kts | 175° |
| 2026-04-16 20:27 | 8.69382 | 13.41132 | 34787 ft | 477 kts | 175° |
| 2026-04-16 20:28 | 8.62773 | 13.41820 | 34793 ft | 476 kts | 175° |
| 2026-04-16 20:28 | 8.56156 | 13.42508 | 34804 ft | 476 kts | 175° |
| 2026-04-16 20:29 | 8.49550 | 13.43195 | 34813 ft | 476 kts | 175° |
| 2026-04-16 20:29 | 8.42925 | 13.43883 | 34833 ft | 476 kts | 175° |
| 2026-04-16 20:30 | 8.36304 | 13.44571 | 34848 ft | 476 kts | 175° |
| 2026-04-16 20:30 | 8.29710 | 13.45256 | 34862 ft | 476 kts | 175° |
| 2026-04-16 20:31 | 8.23103 | 13.45942 | 34877 ft | 476 kts | 175° |
| 2026-04-16 20:31 | 8.16455 | 13.46632 | 34873 ft | 477 kts | 175° |
| 2026-04-16 20:32 | 8.09856 | 13.47317 | 34883 ft | 476 kts | 175° |
| 2026-04-16 20:32 | 8.03201 | 13.48008 | 34876 ft | 476 kts | 175° |
| 2026-04-16 20:33 | 7.96624 | 13.48690 | 34889 ft | 476 kts | 175° |
| 2026-04-16 20:33 | 7.90001 | 13.49376 | 34896 ft | 476 kts | 175° |
| 2026-04-16 20:34 | 7.83421 | 13.50058 | 34922 ft | 475 kts | 174° |
| 2026-04-16 20:34 | 7.76788 | 13.50746 | 34920 ft | 476 kts | 174° |
| 2026-04-16 20:35 | 7.70174 | 13.51431 | 34941 ft | 475 kts | 174° |
| 2026-04-16 20:35 | 7.63607 | 13.52111 | 34974 ft | 475 kts | 174° |
| 2026-04-16 20:36 | 7.58129 | 13.52678 | 35000 ft | 472 kts | 174° |
| 2026-04-16 20:36 | 7.51685 | 13.53344 | 35022 ft | 472 kts | 174° |
| 2026-04-16 20:37 | 7.45140 | 13.54021 | 35042 ft | 473 kts | 174° |
| 2026-04-16 20:37 | 7.38535 | 13.54704 | 35047 ft | 475 kts | 174° |
| 2026-04-16 20:38 | 7.31945 | 13.55386 | 35054 ft | 474 kts | 174° |
| 2026-04-16 20:38 | 7.25339 | 13.56068 | 35058 ft | 474 kts | 174° |
| 2026-04-16 20:39 | 7.18787 | 13.56853 | 35072 ft | 474 kts | 171° |
| 2026-04-16 20:39 | 7.12256 | 13.57863 | 35079 ft | 474 kts | 171° |
| 2026-04-16 20:40 | 7.05733 | 13.58860 | 35088 ft | 474 kts | 171° |
| 2026-04-16 20:40 | 6.99164 | 13.59856 | 35090 ft | 473 kts | 171° |
| 2026-04-16 20:41 | 6.92603 | 13.60846 | 35075 ft | 473 kts | 171° |
| 2026-04-16 20:41 | 6.86052 | 13.61832 | 35062 ft | 474 kts | 171° |
| 2026-04-16 20:42 | 6.79482 | 13.62819 | 35047 ft | 474 kts | 171° |
| 2026-04-16 20:42 | 6.72959 | 13.63798 | 35030 ft | 474 kts | 171° |
| 2026-04-16 20:43 | 6.66407 | 13.64780 | 35034 ft | 474 kts | 171° |
| 2026-04-16 20:43 | 6.59869 | 13.65761 | 35026 ft | 473 kts | 171° |
| 2026-04-16 20:44 | 6.53358 | 13.66736 | 35021 ft | 472 kts | 171° |
| 2026-04-16 20:44 | 6.46833 | 13.67714 | 35027 ft | 472 kts | 171° |
| 2026-04-16 20:45 | 6.40289 | 13.68694 | 35023 ft | 473 kts | 171° |
| 2026-04-16 20:45 | 6.33784 | 13.69668 | 35035 ft | 472 kts | 171° |
| 2026-04-16 20:46 | 6.27249 | 13.70646 | 35021 ft | 472 kts | 171° |
| 2026-04-16 20:46 | 6.20702 | 13.71626 | 35024 ft | 472 kts | 171° |
| 2026-04-16 20:47 | 6.14203 | 13.72598 | 35017 ft | 472 kts | 171° |
| 2026-04-16 20:47 | 6.07693 | 13.73570 | 35011 ft | 471 kts | 171° |
| 2026-04-16 20:48 | 6.01143 | 13.74548 | 35006 ft | 473 kts | 171° |
| 2026-04-16 20:48 | 5.94635 | 13.75519 | 35002 ft | 473 kts | 171° |
| 2026-04-16 20:49 | 5.88098 | 13.76494 | 35003 ft | 472 kts | 171° |
| 2026-04-16 20:49 | 5.81590 | 13.77465 | 34999 ft | 472 kts | 171° |
| 2026-04-16 20:50 | 5.75110 | 13.78431 | 34991 ft | 471 kts | 171° |
| 2026-04-16 20:50 | 5.68581 | 13.79405 | 34992 ft | 470 kts | 171° |
| 2026-04-16 20:51 | 5.62096 | 13.80371 | 34988 ft | 470 kts | 171° |
| 2026-04-16 20:51 | 5.55618 | 13.81336 | 34990 ft | 470 kts | 171° |
| 2026-04-16 20:52 | 5.49091 | 13.82309 | 34987 ft | 471 kts | 171° |
| 2026-04-16 20:52 | 5.42582 | 13.83278 | 34984 ft | 471 kts | 171° |
| 2026-04-16 20:53 | 5.36120 | 13.84241 | 34980 ft | 470 kts | 171° |
| 2026-04-16 20:53 | 5.29615 | 13.85209 | 34982 ft | 470 kts | 171° |
| 2026-04-16 20:54 | 5.23100 | 13.86179 | 34974 ft | 468 kts | 171° |
| 2026-04-16 20:54 | 5.16610 | 13.87145 | 34971 ft | 468 kts | 171° |
| 2026-04-16 20:55 | 5.10154 | 13.88106 | 34969 ft | 467 kts | 171° |
| 2026-04-16 20:55 | 5.03632 | 13.89077 | 34968 ft | 468 kts | 171° |
| 2026-04-16 20:56 | 4.97139 | 13.90043 | 34966 ft | 469 kts | 171° |
| 2026-04-16 20:56 | 4.90627 | 13.91012 | 34962 ft | 467 kts | 171° |
| 2026-04-16 20:57 | 4.84116 | 13.91981 | 34966 ft | 466 kts | 171° |
| 2026-04-16 20:57 | 4.77629 | 13.92946 | 34966 ft | 468 kts | 171° |
| 2026-04-16 20:58 | 4.71162 | 13.93907 | 34973 ft | 467 kts | 171° |
| 2026-04-16 20:58 | 4.64707 | 13.94867 | 34979 ft | 467 kts | 171° |
| 2026-04-16 20:59 | 4.58125 | 13.95846 | 34973 ft | 467 kts | 171° |
| 2026-04-16 20:59 | 4.51640 | 13.96809 | 34965 ft | 470 kts | 170° |
| 2026-04-16 21:00 | 4.45111 | 13.97780 | 34960 ft | 468 kts | 170° |
| 2026-04-16 21:00 | 4.38562 | 13.98753 | 34958 ft | 468 kts | 170° |
| 2026-04-16 21:01 | 4.32118 | 13.99710 | 34948 ft | 466 kts | 170° |
| 2026-04-16 21:01 | 4.25683 | 14.00666 | 34943 ft | 467 kts | 170° |
| 2026-04-16 21:02 | 4.19186 | 14.01630 | 34946 ft | 468 kts | 170° |
| 2026-04-16 21:03 | 4.09490 | 14.03070 | 34955 ft | 467 kts | 170° |
| 2026-04-16 21:03 | 4.03028 | 14.04029 | 34964 ft | 465 kts | 170° |
| 2026-04-16 21:04 | 3.96580 | 14.04984 | 34972 ft | 466 kts | 170° |
| 2026-04-16 21:04 | 3.90112 | 14.05942 | 34970 ft | 467 kts | 170° |
| 2026-04-16 21:05 | 3.83609 | 14.06905 | 34969 ft | 469 kts | 170° |
| 2026-04-16 21:05 | 3.77122 | 14.07865 | 34967 ft | 468 kts | 170° |
| 2026-04-16 21:06 | 3.70664 | 14.08821 | 34960 ft | 471 kts | 169° |
| 2026-04-16 21:06 | 3.64145 | 14.09786 | 34954 ft | 471 kts | 170° |
| 2026-04-16 21:07 | 3.57585 | 14.10757 | 34959 ft | 473 kts | 169° |
| 2026-04-16 21:07 | 3.51032 | 14.11727 | 34961 ft | 473 kts | 170° |
| 2026-04-16 21:08 | 3.44507 | 14.12692 | 34963 ft | 475 kts | 169° |
| 2026-04-16 21:08 | 3.37971 | 14.13659 | 34958 ft | 473 kts | 169° |
| 2026-04-16 21:09 | 3.31414 | 14.14630 | 34957 ft | 476 kts | 170° |
| 2026-04-16 21:09 | 3.24804 | 14.15608 | 34964 ft | 479 kts | 170° |
| 2026-04-16 21:10 | 3.18195 | 14.16585 | 34962 ft | 478 kts | 170° |
| 2026-04-16 21:10 | 3.11618 | 14.17558 | 34954 ft | 477 kts | 169° |
| 2026-04-16 21:11 | 3.05028 | 14.18534 | 34945 ft | 477 kts | 169° |
| 2026-04-16 21:11 | 2.98430 | 14.19512 | 34937 ft | 478 kts | 170° |
| 2026-04-16 21:12 | 2.91827 | 14.20489 | 34939 ft | 477 kts | 170° |
| 2026-04-16 21:12 | 2.85240 | 14.21464 | 34939 ft | 478 kts | 169° |
| 2026-04-16 21:13 | 2.78634 | 14.22442 | 34939 ft | 477 kts | 169° |
| 2026-04-16 21:13 | 2.72043 | 14.23418 | 34937 ft | 477 kts | 169° |
| 2026-04-16 21:14 | 2.65449 | 14.24394 | 34938 ft | 476 kts | 169° |
| 2026-04-16 21:14 | 2.58890 | 14.25364 | 34942 ft | 476 kts | 169° |
| 2026-04-16 21:15 | 2.52310 | 14.26338 | 34938 ft | 476 kts | 169° |
| 2026-04-16 21:15 | 2.45747 | 14.27309 | 34936 ft | 476 kts | 169° |
| 2026-04-16 21:16 | 2.39164 | 14.28283 | 34937 ft | 476 kts | 169° |
| 2026-04-16 21:16 | 2.32594 | 14.29255 | 34937 ft | 477 kts | 169° |
| 2026-04-16 21:17 | 2.25994 | 14.30231 | 34935 ft | 475 kts | 169° |
| 2026-04-16 21:17 | 2.19411 | 14.31203 | 34941 ft | 474 kts | 169° |
| 2026-04-16 21:18 | 2.12871 | 14.32170 | 34939 ft | 474 kts | 169° |
| 2026-04-16 21:18 | 2.06315 | 14.33139 | 34940 ft | 473 kts | 169° |
| 2026-04-16 21:19 | 1.99796 | 14.34102 | 34943 ft | 474 kts | 169° |
| 2026-04-16 21:19 | 1.93225 | 14.35073 | 34943 ft | 473 kts | 169° |
| 2026-04-16 21:20 | 1.86618 | 14.36049 | 34941 ft | 474 kts | 169° |
| 2026-04-16 21:20 | 1.80079 | 14.37015 | 34938 ft | 473 kts | 169° |
| 2026-04-16 21:21 | 1.73504 | 14.37986 | 34935 ft | 473 kts | 169° |
| 2026-04-16 21:21 | 1.66955 | 14.38953 | 34934 ft | 473 kts | 169° |
| 2026-04-16 21:22 | 1.60428 | 14.39917 | 34932 ft | 473 kts | 169° |
| 2026-04-16 21:22 | 1.53881 | 14.40884 | 34932 ft | 473 kts | 169° |
| 2026-04-16 21:23 | 1.47390 | 14.41843 | 34930 ft | 473 kts | 169° |
| 2026-04-16 21:23 | 1.40828 | 14.42812 | 34930 ft | 474 kts | 169° |
| 2026-04-16 21:24 | 1.34286 | 14.43778 | 34925 ft | 474 kts | 169° |
| 2026-04-16 21:24 | 1.27770 | 14.44739 | 34919 ft | 472 kts | 169° |
| 2026-04-16 21:25 | 1.21218 | 14.45707 | 34913 ft | 473 kts | 169° |
| 2026-04-16 21:25 | 1.14697 | 14.46670 | 34909 ft | 473 kts | 169° |
| 2026-04-16 21:26 | 1.08179 | 14.47632 | 34909 ft | 474 kts | 169° |
| 2026-04-16 21:26 | 1.01649 | 14.48596 | 34909 ft | 473 kts | 169° |
| 2026-04-16 21:27 | 0.95143 | 14.49556 | 34910 ft | 474 kts | 169° |
| 2026-04-16 21:27 | 0.88561 | 14.50528 | 34912 ft | 474 kts | 169° |
| 2026-04-16 21:28 | 0.82009 | 14.51495 | 34916 ft | 474 kts | 169° |
| 2026-04-16 21:28 | 0.75488 | 14.52457 | 34919 ft | 474 kts | 169° |
| 2026-04-16 21:29 | 0.68924 | 14.53426 | 34920 ft | 476 kts | 169° |
| 2026-04-16 21:29 | 0.62355 | 14.54396 | 34922 ft | 475 kts | 169° |
| 2026-04-16 21:30 | 0.55764 | 14.55368 | 34920 ft | 476 kts | 169° |
| 2026-04-16 21:30 | 0.49179 | 14.56340 | 34923 ft | 475 kts | 169° |
| 2026-04-16 21:31 | 0.42608 | 14.57310 | 34921 ft | 475 kts | 169° |
| 2026-04-16 21:31 | 0.36034 | 14.58280 | 34917 ft | 475 kts | 169° |
| 2026-04-16 21:32 | 0.29502 | 14.59244 | 34918 ft | 477 kts | 169° |
| 2026-04-16 21:32 | 0.22870 | 14.60223 | 34917 ft | 478 kts | 169° |
| 2026-04-16 21:33 | 0.16270 | 14.61197 | 34919 ft | 477 kts | 169° |
| 2026-04-16 21:33 | 0.09676 | 14.62170 | 34919 ft | 478 kts | 169° |
| 2026-04-16 21:34 | 0.03108 | 14.63139 | 34919 ft | 476 kts | 169° |
| 2026-04-16 21:34 | -0.03480 | 14.64111 | 34920 ft | 477 kts | 169° |
| 2026-04-16 21:35 | -0.10096 | 14.65088 | 34926 ft | 477 kts | 169° |
| 2026-04-16 21:35 | -0.16749 | 14.66070 | 34939 ft | 478 kts | 169° |
| 2026-04-16 21:36 | -0.23364 | 14.67046 | 34941 ft | 479 kts | 169° |
| 2026-04-16 21:36 | -0.29958 | 14.68018 | 34942 ft | 479 kts | 169° |
| 2026-04-16 21:37 | -0.36599 | 14.68998 | 34944 ft | 478 kts | 169° |
| 2026-04-16 21:37 | -0.43265 | 14.69982 | 34948 ft | 479 kts | 169° |
| 2026-04-16 21:38 | -0.49910 | 14.70962 | 34945 ft | 479 kts | 169° |
| 2026-04-16 21:38 | -0.56535 | 14.71940 | 34939 ft | 480 kts | 169° |
| 2026-04-16 21:39 | -0.63145 | 14.72915 | 34938 ft | 480 kts | 169° |
| 2026-04-16 21:39 | -0.69827 | 14.73901 | 34938 ft | 481 kts | 169° |
| 2026-04-16 21:40 | -0.76465 | 14.74880 | 34936 ft | 480 kts | 169° |
| 2026-04-16 21:40 | -0.83091 | 14.75858 | 34934 ft | 480 kts | 169° |
| 2026-04-16 21:41 | -0.89731 | 14.76838 | 34934 ft | 481 kts | 169° |
| 2026-04-16 21:41 | -0.96393 | 14.77821 | 34935 ft | 481 kts | 169° |
| 2026-04-16 21:42 | -1.03018 | 14.78798 | 34935 ft | 481 kts | 169° |
| 2026-04-16 21:42 | -1.09672 | 14.79780 | 34937 ft | 481 kts | 169° |
| 2026-04-16 21:43 | -1.16316 | 14.80761 | 34938 ft | 480 kts | 169° |
| 2026-04-16 21:43 | -1.22935 | 14.81738 | 34939 ft | 482 kts | 169° |
| 2026-04-16 21:44 | -1.29603 | 14.82722 | 34938 ft | 481 kts | 169° |
| 2026-04-16 21:44 | -1.36219 | 14.83699 | 34936 ft | 482 kts | 169° |
| 2026-04-16 21:45 | -1.42862 | 14.84679 | 34932 ft | 481 kts | 169° |
| 2026-04-16 21:45 | -1.49513 | 14.85661 | 34929 ft | 481 kts | 169° |
| 2026-04-16 21:46 | -1.56192 | 14.86647 | 34928 ft | 481 kts | 170° |
| 2026-04-16 21:46 | -1.62844 | 14.87629 | 34927 ft | 481 kts | 169° |
| 2026-04-16 21:47 | -1.69489 | 14.88611 | 34923 ft | 481 kts | 170° |
| 2026-04-16 21:47 | -1.76142 | 14.89593 | 34923 ft | 482 kts | 170° |
| 2026-04-16 21:48 | -1.82814 | 14.90579 | 34924 ft | 482 kts | 170° |
| 2026-04-16 21:48 | -1.89446 | 14.91559 | 34924 ft | 481 kts | 170° |
| 2026-04-16 21:49 | -1.96111 | 14.92544 | 34931 ft | 481 kts | 170° |
| 2026-04-16 21:49 | -2.02759 | 14.93527 | 34942 ft | 480 kts | 170° |
| 2026-04-16 21:50 | -2.09413 | 14.94511 | 34948 ft | 481 kts | 170° |
| 2026-04-16 21:50 | -2.16062 | 14.95494 | 34951 ft | 482 kts | 170° |
| 2026-04-16 21:51 | -2.22713 | 14.96477 | 34955 ft | 481 kts | 170° |
| 2026-04-16 21:51 | -2.29390 | 14.97465 | 34958 ft | 482 kts | 170° |
| 2026-04-16 21:52 | -2.36099 | 14.98457 | 34952 ft | 481 kts | 170° |
| 2026-04-16 21:52 | -2.42777 | 14.99445 | 34943 ft | 482 kts | 170° |
| 2026-04-16 21:53 | -2.49491 | 15.00438 | 34941 ft | 483 kts | 170° |
| 2026-04-16 21:53 | -2.56168 | 15.01426 | 34935 ft | 482 kts | 170° |
| 2026-04-16 21:54 | -2.62848 | 15.02414 | 34934 ft | 483 kts | 170° |
| 2026-04-16 21:54 | -2.66173 | 15.02906 | 34661 ft | 488 kts | 170° |
| 2026-04-16 21:54 | -2.69551 | 15.03407 | 33952 ft | 492 kts | 170° |
| 2026-04-16 21:54 | -2.72969 | 15.03913 | 33236 ft | 491 kts | 170° |
| 2026-04-16 21:55 | -2.76337 | 15.04411 | 32544 ft | 490 kts | 170° |
| 2026-04-16 21:55 | -2.79729 | 15.04913 | 31890 ft | 491 kts | 169° |
| 2026-04-16 21:55 | -2.83131 | 15.05417 | 31236 ft | 493 kts | 169° |
| 2026-04-16 21:55 | -2.86513 | 15.05918 | 30590 ft | 494 kts | 170° |
| 2026-04-16 21:56 | -2.89912 | 15.06421 | 29943 ft | 494 kts | 169° |
| 2026-04-16 21:56 | -2.93340 | 15.06928 | 29291 ft | 491 kts | 170° |
| 2026-04-16 21:56 | -2.96695 | 15.07425 | 28650 ft | 486 kts | 169° |
| 2026-04-16 21:56 | -3.00019 | 15.07916 | 28041 ft | 481 kts | 169° |
| 2026-04-16 21:57 | -3.01703 | 15.08166 | 27734 ft | 479 kts | 169° |
| 2026-04-16 21:57 | -3.04572 | 15.08590 | 27205 ft | 475 kts | 169° |
| 2026-04-16 21:57 | -3.07855 | 15.09076 | 26599 ft | 471 kts | 169° |
| 2026-04-16 21:57 | -3.11104 | 15.09558 | 25994 ft | 467 kts | 169° |
| 2026-04-16 21:58 | -3.14316 | 15.10033 | 25391 ft | 463 kts | 169° |
| 2026-04-16 21:58 | -3.17487 | 15.10503 | 24778 ft | 459 kts | 169° |
| 2026-04-16 21:58 | -3.20646 | 15.10971 | 24068 ft | 458 kts | 169° |
| 2026-04-16 21:58 | -3.23814 | 15.11440 | 23347 ft | 457 kts | 169° |
| 2026-04-16 21:59 | -3.26964 | 15.11907 | 22641 ft | 456 kts | 169° |
| 2026-04-16 21:59 | -3.30088 | 15.12370 | 21942 ft | 455 kts | 169° |
| 2026-04-16 21:59 | -3.33221 | 15.12834 | 21246 ft | 454 kts | 169° |
| 2026-04-16 21:59 | -3.36337 | 15.13296 | 20551 ft | 452 kts | 169° |
| 2026-04-16 22:00 | -3.39440 | 15.13756 | 19855 ft | 449 kts | 169° |
| 2026-04-16 22:00 | -3.42531 | 15.14214 | 19158 ft | 447 kts | 169° |
| 2026-04-16 22:00 | -3.45594 | 15.14668 | 18462 ft | 444 kts | 170° |
| 2026-04-16 22:00 | -3.48659 | 15.15122 | 17763 ft | 440 kts | 170° |
| 2026-04-16 22:01 | -3.51671 | 15.15569 | 17064 ft | 435 kts | 170° |
| 2026-04-16 22:01 | -3.54665 | 15.16012 | 16352 ft | 427 kts | 170° |
| 2026-04-16 22:01 | -3.57563 | 15.16441 | 15628 ft | 412 kts | 170° |
| 2026-04-16 22:01 | -3.60358 | 15.16855 | 14738 ft | 403 kts | 170° |
| 2026-04-16 22:02 | -3.63118 | 15.17264 | 13807 ft | 395 kts | 170° |
| 2026-04-16 22:02 | -3.65791 | 15.17660 | 12826 ft | 391 kts | 170° |
| 2026-04-16 22:02 | -3.68472 | 15.18058 | 11818 ft | 386 kts | 169° |
| 2026-04-16 22:02 | -3.71069 | 15.18443 | 11257 ft | 370 kts | 170° |
| 2026-04-16 22:03 | -3.73566 | 15.18813 | 10841 ft | 355 kts | 170° |
| 2026-04-16 22:03 | -3.75973 | 15.19170 | 10658 ft | 339 kts | 169° |
| 2026-04-16 22:03 | -3.78281 | 15.19512 | 10566 ft | 322 kts | 169° |
| 2026-04-16 22:03 | -3.80452 | 15.19834 | 10463 ft | 308 kts | 169° |
| 2026-04-16 22:04 | -3.82556 | 15.20146 | 10318 ft | 299 kts | 169° |
| 2026-04-16 22:04 | -3.84580 | 15.20444 | 10180 ft | 292 kts | 171° |
| 2026-04-16 22:04 | -3.86592 | 15.20662 | 10054 ft | 284 kts | 172° |
| 2026-04-16 22:04 | -3.88539 | 15.20857 | 9840 ft | 279 kts | 172° |
| 2026-04-16 22:05 | -3.90526 | 15.21065 | 9454 ft | 292 kts | 172° |
| 2026-04-16 22:05 | -3.92564 | 15.21283 | 9061 ft | 293 kts | 172° |
| 2026-04-16 22:05 | -3.94604 | 15.21501 | 8693 ft | 293 kts | 172° |
| 2026-04-16 22:05 | -3.96626 | 15.21725 | 8316 ft | 294 kts | 169° |
| 2026-04-16 22:06 | -3.98573 | 15.22403 | 7613 ft | 298 kts | 144° |
| 2026-04-16 22:06 | -4.01180 | 15.25367 | 6864 ft | 276 kts | 124° |
| 2026-04-16 22:06 | -4.02302 | 15.26905 | 6516 ft | 276 kts | 124° |
| 2026-04-16 22:07 | -4.03444 | 15.28470 | 6157 ft | 275 kts | 124° |
| 2026-04-16 22:07 | -4.04565 | 15.30009 | 5811 ft | 272 kts | 124° |
| 2026-04-16 22:07 | -4.05671 | 15.31526 | 5496 ft | 269 kts | 125° |
| 2026-04-16 22:07 | -4.06770 | 15.33034 | 5182 ft | 264 kts | 124° |
| 2026-04-16 22:08 | -4.07818 | 15.34471 | 4886 ft | 254 kts | 124° |
| 2026-04-16 22:08 | -4.08867 | 15.35883 | 4585 ft | 249 kts | 129° |
| 2026-04-16 22:08 | -4.10255 | 15.36878 | 4244 ft | 253 kts | 158° |
| 2026-04-16 22:08 | -4.11968 | 15.37107 | 3854 ft | 246 kts | 187° |
| 2026-04-16 22:09 | -4.13542 | 15.36538 | 3494 ft | 236 kts | 210° |
| 2026-04-16 22:09 | -4.14928 | 15.35704 | 3185 ft | 224 kts | 212° |
| 2026-04-16 22:09 | -4.16135 | 15.34957 | 3003 ft | 203 kts | 212° |
| 2026-04-16 22:09 | -4.17294 | 15.34216 | 2975 ft | 192 kts | 220° |
| 2026-04-16 22:10 | -4.18197 | 15.33315 | 2961 ft | 173 kts | 230° |
| 2026-04-16 22:10 | -4.18929 | 15.32446 | 2929 ft | 157 kts | 231° |
| 2026-04-16 22:10 | -4.19618 | 15.31621 | 2685 ft | 151 kts | 231° |
| 2026-04-16 22:10 | -4.20280 | 15.30832 | 2341 ft | 146 kts | 231° |
| 2026-04-16 22:11 | -4.20930 | 15.30058 | 2022 ft | 147 kts | 231° |
| 2026-04-16 22:11 | -4.21486 | 15.29393 | 1809 ft | 143 kts | 231° |
| 2026-04-16 22:11 | -4.21823 | 15.28994 | 1706 ft | 140 kts | 231° |
| 2026-04-16 22:12 | -4.22449 | 15.28248 | 1530 ft | 141 kts | 231° |
| 2026-04-16 22:12 | -4.23093 | 15.27481 | 1345 ft | 144 kts | 231° |
| 2026-04-16 22:12 | -4.23749 | 15.26716 | 1151 ft | 146 kts | 231° |
| 2026-04-16 22:12 | -4.24385 | 15.25953 | 1057 ft | 127 kts | 231° |
| 2026-04-16 22:13 | -4.24876 | 15.25363 | 1048 ft | 94 kts | 231° |
| 2026-04-16 22:13 | -4.25216 | 15.24958 | 1043 ft | 58 kts | 230° |
| 2026-04-16 22:13 | -4.25401 | 15.24736 | 1043 ft | 26 kts | 230° |
| 2026-04-16 22:13 | -4.25464 | 15.24642 | 1043 ft | 7 kts | 242° |
| 2026-04-16 22:14 | -4.25481 | 15.24622 | 1043 ft | 1 kts | 191° |
| 2026-04-16 22:14 | -4.25487 | 15.24624 | 1043 ft | 1 kts | 147° |
| 2026-04-16 22:14 | -4.25483 | 15.24643 | 1043 ft | 8 kts | 53° |
| 2026-04-16 22:14 | -4.25409 | 15.24727 | 1043 ft | 27 kts | 49° |
| 2026-04-16 22:15 | -4.25253 | 15.24911 | 1043 ft | 35 kts | 50° |
| 2026-04-16 22:15 | -4.25108 | 15.25084 | 1044 ft | 21 kts | 50° |
| 2026-04-16 22:15 | -4.25080 | 15.25166 | 1046 ft | 10 kts | 121° |
| 2026-04-16 22:15 | -4.25143 | 15.25226 | 1046 ft | 15 kts | 140° |
| 2026-04-16 22:16 | -4.25236 | 15.25303 | 1048 ft | 19 kts | 140° |
| 2026-04-16 22:16 | -4.25321 | 15.25373 | 1049 ft | 10 kts | 144° |
| 2026-04-16 22:16 | -4.25383 | 15.25367 | 1048 ft | 10 kts | 228° |
| 2026-04-16 22:16 | -4.25443 | 15.25296 | 1046 ft | 16 kts | 230° |
| 2026-04-16 22:17 | -4.25523 | 15.25200 | 1044 ft | 15 kts | 230° |
| 2026-04-16 22:17 | -4.25590 | 15.25158 | 1045 ft | 10 kts | 188° |
| 2026-04-16 22:17 | -4.25636 | 15.25155 | 1046 ft | 4 kts | 182° |
| 2026-04-16 22:17 | -4.25659 | 15.25155 | 1047 ft | 2 kts | 181° |
| 2026-04-16 22:18 | -4.25673 | 15.25155 | 1047 ft | 1 kts | 181° |
| 2026-04-16 22:18 | -4.25682 | 15.25155 | 1047 ft | 1 kts | 180° |
| 2026-04-16 22:18 | -4.25689 | 15.25154 | 1047 ft | 0 kts | 180° |